Time;durP1;ratioP1;P1;durP2;ratioP2;P2;SDS_P1;SDS_P2;PMS_P1;PMS_P2;Temp;Humidity;BMP_temperature;BMP_pressure;BME280_temperature;BME280_humidity;BME280_pressure;Samples;Min_cycle;Max_cycle;Signal;HPM_P1;HPM_P2
2022/06/05 12:11:20;;;;;;;25.48;17.88;;;;;;;21.59;59.09;100709.56;5081618;27;20434;-69
2022/06/05 12:14:14;;;;;;;23.77;17.77;;;;;;;21.46;62.01;100714.09;5055540;28;20095;-71
2022/06/05 12:17:06;;;;;;;23.90;16.13;;;;;;;21.49;60.83;100718.22;5086576;28;20455;-70
2022/06/05 12:19:57;;;;;;;28.20;16.77;;;;;;;21.49;60.29;100714.72;5070600;28;20040;-70
2022/06/05 12:22:50;;;;;;;23.98;16.15;;;;;;;21.58;60.25;100714.16;5070497;28;20047;-70
2022/06/05 12:25:48;;;;;;;22.67;14.88;;;;;;;21.57;60.51;100700.88;5051600;28;21875;-70
2022/06/05 12:28:23;;;;;;;21.80;15.10;;;;;;;21.51;61.00;100704.50;5070049;28;20501;-69
2022/06/05 12:31:11;;;;;;;21.17;15.05;;;;;;;21.49;60.86;100693.94;5053025;28;20440;-70
2022/06/05 12:34:00;;;;;;;24.67;15.32;;;;;;;21.52;60.84;100706.13;5071460;28;20060;-70
2022/06/05 12:36:41;;;;;;;21.92;14.70;;;;;;;21.57;59.74;100682.81;5073177;28;20482;-70
2022/06/05 12:39:22;;;;;;;19.45;14.30;;;;;;;21.58;60.08;100684.47;5070289;28;20040;-70
2022/06/05 12:42:27;;;;;;;21.42;14.55;;;;;;;21.54;60.73;100674.34;5069892;28;20041;-70
2022/06/05 12:44:57;;;;;;;19.60;13.88;;;;;;;21.58;59.88;100675.56;5085583;28;20410;-70
2022/06/05 12:47:39;;;;;;;19.67;13.82;;;;;;;21.55;60.24;100668.72;5069928;28;20452;-72
2022/06/05 12:53:39;;;;;;;19.98;13.65;;;;;;;21.63;60.08;100664.91;5111208;27;20372;-70
2022/06/05 12:56:48;;;;;;;17.27;12.48;;;;;;;21.61;59.95;100661.59;5111172;28;20043;-71
2022/06/05 12:59:29;;;;;;;19.92;13.45;;;;;;;21.55;60.61;100651.72;5111125;28;20114;-70
2022/06/05 13:02:16;;;;;;;19.40;13.63;;;;;;;21.53;60.51;100657.34;5111054;28;20044;-70
2022/06/05 13:04:52;;;;;;;17.98;12.50;;;;;;;21.63;59.80;100652.22;5110565;28;20042;-70
2022/06/05 13:07:21;;;;;;;19.83;13.05;;;;;;;21.65;59.97;100643.91;5110951;28;20127;-70
2022/06/05 13:10:00;;;;;;;18.35;13.32;;;;;;;21.63;59.85;100649.53;5110854;28;20040;-70
2022/06/05 13:12:40;;;;;;;17.52;12.52;;;;;;;21.61;60.09;100642.69;5110869;28;20123;-70
2022/06/05 13:15:27;;;;;;;18.33;12.77;;;;;;;21.59;59.94;100642.94;5109821;28;20468;-71
2022/06/05 13:18:12;;;;;;;20.85;12.80;;;;;;;21.65;59.60;100638.50;5110961;28;20039;-70
2022/06/05 13:21:02;;;;;;;21.13;13.13;;;;;;;21.62;60.35;100634.38;5111270;28;20054;-70
2022/06/05 13:23:37;;;;;;;17.30;12.40;;;;;;;21.62;60.06;100625.47;5110660;28;20089;-70
2022/06/05 13:26:43;;;;;;;18.75;12.13;;;;;;;21.60;60.05;100627.56;5111039;28;20481;-70
2022/06/05 13:29:22;;;;;;;18.48;12.05;;;;;;;21.58;59.96;100624.28;5110287;28;20484;-70
2022/06/05 13:32:07;;;;;;;17.35;12.73;;;;;;;21.63;59.73;100622.53;5110501;28;20038;-70
2022/06/05 13:34:56;;;;;;;16.08;11.50;;;;;;;21.67;59.94;100625.59;5109969;28;20071;-69
2022/06/05 13:37:47;;;;;;;17.88;12.25;;;;;;;21.65;59.64;100623.13;5110395;28;20036;-70
2022/06/05 13:43:01;;;;;;;16.83;12.02;;;;;;;21.59;60.07;100618.66;5111418;27;20376;-70
2022/06/05 13:45:39;;;;;;;16.40;12.00;;;;;;;21.61;59.89;100610.31;5111299;28;20052;-70
2022/06/05 13:48:16;;;;;;;19.67;12.00;;;;;;;21.60;60.34;100612.19;5110955;28;20035;-71
2022/06/05 13:51:01;;;;;;;16.75;12.10;;;;;;;21.55;60.38;100619.34;5111127;28;20054;-71
2022/06/05 13:53:37;;;;;;;19.13;12.35;;;;;;;21.50;60.60;100616.50;5111074;28;20044;-70
2022/06/05 13:56:30;;;;;;;16.17;12.27;;;;;;;21.56;60.48;100613.72;5111015;28;20043;-68
2022/06/05 13:59:05;;;;;;;18.08;12.27;;;;;;;21.64;59.62;100601.75;5110830;28;20047;-70
2022/06/05 14:01:38;;;;;;;18.80;12.15;;;;;;;21.61;59.90;100608.44;5110885;28;20119;-70
2022/06/05 14:04:23;;;;;;;17.20;11.90;;;;;;;21.59;59.78;100605.16;5110384;28;20123;-70
2022/06/05 14:06:57;;;;;;;17.52;12.10;;;;;;;21.74;59.26;100599.31;5110733;28;20099;-68
